sensor_id;sensor_type;location;lat;lon;timestamp;P1;durP1;ratioP1;P2;durP2;ratioP2
17761;SDS011;9005;48.838;10.112;2023-05-02T00:01:34;2.38;;;1.77;;
17761;SDS011;9005;48.838;10.112;2023-05-02T00:04:01;4.53;;;2.72;;
17761;SDS011;9005;48.838;10.112;2023-05-02T00:06:29;4.90;;;2.90;;
17761;SDS011;9005;48.838;10.112;2023-05-02T00:08:57;2.17;;;1.85;;
17761;SDS011;9005;48.838;10.112;2023-05-02T00:11:24;2.55;;;2.30;;
17761;SDS011;9005;48.838;10.112;2023-05-02T00:13:51;2.25;;;2.05;;
17761;SDS011;9005;48.838;10.112;2023-05-02T00:16:17;2.88;;;2.47;;
17761;SDS011;9005;48.838;10.112;2023-05-02T00:18:44;2.95;;;2.40;;
17761;SDS011;9005;48.838;10.112;2023-05-02T00:21:11;3.67;;;2.83;;
17761;SDS011;9005;48.838;10.112;2023-05-02T00:23:38;3.15;;;2.67;;
17761;SDS011;9005;48.838;10.112;2023-05-02T00:26:08;3.80;;;3.00;;
17761;SDS011;9005;48.838;10.112;2023-05-02T00:28:35;10.25;;;5.35;;
17761;SDS011;9005;48.838;10.112;2023-05-02T00:31:03;2.70;;;2.50;;
17761;SDS011;9005;48.838;10.112;2023-05-02T00:33:29;8.05;;;4.75;;
17761;SDS011;9005;48.838;10.112;2023-05-02T00:35:56;2.30;;;1.80;;
17761;SDS011;9005;48.838;10.112;2023-05-02T00:38:23;2.33;;;2.08;;
17761;SDS011;9005;48.838;10.112;2023-05-02T00:40:50;2.60;;;2.40;;
17761;SDS011;9005;48.838;10.112;2023-05-02T00:43:18;3.67;;;2.20;;
17761;SDS011;9005;48.838;10.112;2023-05-02T00:45:45;7.07;;;5.00;;
17761;SDS011;9005;48.838;10.112;2023-05-02T00:48:12;3.08;;;2.65;;
17761;SDS011;9005;48.838;10.112;2023-05-02T00:50:40;2.08;;;1.90;;
17761;SDS011;9005;48.838;10.112;2023-05-02T00:53:07;2.97;;;1.98;;
17761;SDS011;9005;48.838;10.112;2023-05-02T00:55:35;1.70;;;1.60;;
17761;SDS011;9005;48.838;10.112;2023-05-02T00:58:03;2.88;;;2.35;;
17761;SDS011;9005;48.838;10.112;2023-05-02T01:00:36;2.17;;;1.98;;
17761;SDS011;9005;48.838;10.112;2023-05-02T01:03:14;2.38;;;2.17;;
17761;SDS011;9005;48.838;10.112;2023-05-02T01:05:48;7.70;;;4.57;;
17761;SDS011;9005;48.838;10.112;2023-05-02T01:08:24;2.88;;;1.95;;
17761;SDS011;9005;48.838;10.112;2023-05-02T01:10:58;2.33;;;2.13;;
17761;SDS011;9005;48.838;10.112;2023-05-02T01:13:31;4.18;;;3.60;;
17761;SDS011;9005;48.838;10.112;2023-05-02T01:16:01;2.25;;;1.80;;
17761;SDS011;9005;48.838;10.112;2023-05-02T01:18:31;2.33;;;2.00;;
17761;SDS011;9005;48.838;10.112;2023-05-02T01:21:02;9.73;;;5.50;;
17761;SDS011;9005;48.838;10.112;2023-05-02T01:23:37;7.90;;;5.38;;
17761;SDS011;9005;48.838;10.112;2023-05-02T01:26:15;5.28;;;3.63;;
17761;SDS011;9005;48.838;10.112;2023-05-02T01:28:57;3.47;;;2.38;;
17761;SDS011;9005;48.838;10.112;2023-05-02T01:31:25;3.35;;;2.25;;
17761;SDS011;9005;48.838;10.112;2023-05-02T01:33:54;6.60;;;3.30;;
17761;SDS011;9005;48.838;10.112;2023-05-02T01:36:22;1.80;;;1.70;;
17761;SDS011;9005;48.838;10.112;2023-05-02T01:38:51;2.20;;;2.00;;
17761;SDS011;9005;48.838;10.112;2023-05-02T01:41:20;2.13;;;1.92;;
17761;SDS011;9005;48.838;10.112;2023-05-02T01:43:50;3.17;;;2.03;;
17761;SDS011;9005;48.838;10.112;2023-05-02T01:46:20;2.35;;;2.00;;
17761;SDS011;9005;48.838;10.112;2023-05-02T01:48:48;2.33;;;2.08;;
17761;SDS011;9005;48.838;10.112;2023-05-02T01:51:17;2.45;;;2.13;;
17761;SDS011;9005;48.838;10.112;2023-05-02T01:53:45;2.28;;;2.08;;
17761;SDS011;9005;48.838;10.112;2023-05-02T01:56:14;3.95;;;2.22;;
17761;SDS011;9005;48.838;10.112;2023-05-02T01:58:44;2.60;;;2.10;;
17761;SDS011;9005;48.838;10.112;2023-05-02T02:01:12;1.80;;;1.70;;
17761;SDS011;9005;48.838;10.112;2023-05-02T02:03:42;1.80;;;1.70;;
17761;SDS011;9005;48.838;10.112;2023-05-02T02:06:10;2.30;;;2.10;;
17761;SDS011;9005;48.838;10.112;2023-05-02T02:08:37;2.22;;;1.80;;
17761;SDS011;9005;48.838;10.112;2023-05-02T02:11:06;1.90;;;1.80;;
17761;SDS011;9005;48.838;10.112;2023-05-02T02:13:38;3.13;;;1.92;;
17761;SDS011;9005;48.838;10.112;2023-05-02T02:16:09;2.17;;;1.98;;
17761;SDS011;9005;48.838;10.112;2023-05-02T02:18:39;3.17;;;2.00;;
17761;SDS011;9005;48.838;10.112;2023-05-02T02:21:10;2.30;;;2.10;;
17761;SDS011;9005;48.838;10.112;2023-05-02T02:23:38;2.30;;;2.10;;
17761;SDS011;9005;48.838;10.112;2023-05-02T02:26:07;3.97;;;2.28;;
17761;SDS011;9005;48.838;10.112;2023-05-02T02:28:34;3.35;;;3.05;;
17761;SDS011;9005;48.838;10.112;2023-05-02T02:31:01;2.33;;;2.10;;
17761;SDS011;9005;48.838;10.112;2023-05-02T02:33:29;3.25;;;2.17;;
17761;SDS011;9005;48.838;10.112;2023-05-02T02:36:01;2.53;;;1.67;;
17761;SDS011;9005;48.838;10.112;2023-05-02T02:38:34;2.20;;;1.95;;
17761;SDS011;9005;48.838;10.112;2023-05-02T02:41:10;3.13;;;2.15;;
17761;SDS011;9005;48.838;10.112;2023-05-02T02:43:43;2.20;;;2.00;;
17761;SDS011;9005;48.838;10.112;2023-05-02T02:46:22;2.20;;;2.00;;
17761;SDS011;9005;48.838;10.112;2023-05-02T02:48:56;2.10;;;1.92;;
17761;SDS011;9005;48.838;10.112;2023-05-02T02:51:38;2.55;;;2.25;;
17761;SDS011;9005;48.838;10.112;2023-05-02T02:54:12;2.15;;;1.90;;
17761;SDS011;9005;48.838;10.112;2023-05-02T02:56:44;3.00;;;1.70;;
17761;SDS011;9005;48.838;10.112;2023-05-02T02:59:14;2.58;;;2.20;;
17761;SDS011;9005;48.838;10.112;2023-05-02T03:01:51;2.80;;;2.13;;
17761;SDS011;9005;48.838;10.112;2023-05-02T03:04:22;2.78;;;1.90;;
17761;SDS011;9005;48.838;10.112;2023-05-02T03:06:51;2.35;;;1.90;;
17761;SDS011;9005;48.838;10.112;2023-05-02T03:09:17;3.30;;;1.80;;
17761;SDS011;9005;48.838;10.112;2023-05-02T03:11:44;3.05;;;1.90;;
17761;SDS011;9005;48.838;10.112;2023-05-02T03:14:11;2.10;;;1.90;;
17761;SDS011;9005;48.838;10.112;2023-05-02T03:16:38;1.90;;;1.73;;
17761;SDS011;9005;48.838;10.112;2023-05-02T03:19:06;1.90;;;1.80;;
17761;SDS011;9005;48.838;10.112;2023-05-02T03:21:33;3.75;;;3.00;;
17761;SDS011;9005;48.838;10.112;2023-05-02T03:24:02;5.13;;;3.42;;
17761;SDS011;9005;48.838;10.112;2023-05-02T03:26:29;2.10;;;1.88;;
17761;SDS011;9005;48.838;10.112;2023-05-02T03:28:56;8.93;;;4.70;;
17761;SDS011;9005;48.838;10.112;2023-05-02T03:31:23;2.10;;;1.90;;
17761;SDS011;9005;48.838;10.112;2023-05-02T03:33:50;2.03;;;1.80;;
17761;SDS011;9005;48.838;10.112;2023-05-02T03:36:17;2.20;;;2.00;;
17761;SDS011;9005;48.838;10.112;2023-05-02T03:38:43;7.15;;;4.15;;
17761;SDS011;9005;48.838;10.112;2023-05-02T03:41:11;2.70;;;2.13;;
17761;SDS011;9005;48.838;10.112;2023-05-02T03:43:38;3.25;;;1.83;;
17761;SDS011;9005;48.838;10.112;2023-05-02T03:46:05;2.30;;;2.10;;
17761;SDS011;9005;48.838;10.112;2023-05-02T03:48:33;8.65;;;5.65;;
17761;SDS011;9005;48.838;10.112;2023-05-02T03:51:00;7.88;;;4.65;;
17761;SDS011;9005;48.838;10.112;2023-05-02T03:53:28;10.00;;;5.25;;
17761;SDS011;9005;48.838;10.112;2023-05-02T03:55:55;10.38;;;4.28;;
17761;SDS011;9005;48.838;10.112;2023-05-02T03:58:23;4.32;;;3.25;;
17761;SDS011;9005;48.838;10.112;2023-05-02T04:00:51;8.82;;;6.60;;
17761;SDS011;9005;48.838;10.112;2023-05-02T04:03:17;2.92;;;2.53;;
17761;SDS011;9005;48.838;10.112;2023-05-02T04:05:44;3.38;;;3.08;;
17761;SDS011;9005;48.838;10.112;2023-05-02T04:08:11;4.70;;;3.58;;
17761;SDS011;9005;48.838;10.112;2023-05-02T04:10:38;2.80;;;2.60;;
17761;SDS011;9005;48.838;10.112;2023-05-02T04:13:04;4.25;;;3.03;;
17761;SDS011;9005;48.838;10.112;2023-05-02T04:15:32;3.67;;;3.17;;
17761;SDS011;9005;48.838;10.112;2023-05-02T04:17:59;6.43;;;5.15;;
17761;SDS011;9005;48.838;10.112;2023-05-02T04:20:27;5.07;;;3.63;;
17761;SDS011;9005;48.838;10.112;2023-05-02T04:22:54;7.28;;;4.63;;
17761;SDS011;9005;48.838;10.112;2023-05-02T04:25:21;4.35;;;3.75;;
17761;SDS011;9005;48.838;10.112;2023-05-02T04:27:48;5.68;;;3.60;;
17761;SDS011;9005;48.838;10.112;2023-05-02T04:30:15;5.95;;;3.92;;
17761;SDS011;9005;48.838;10.112;2023-05-02T04:32:43;5.50;;;4.38;;
17761;SDS011;9005;48.838;10.112;2023-05-02T04:35:09;4.78;;;3.28;;
17761;SDS011;9005;48.838;10.112;2023-05-02T04:37:36;5.18;;;4.13;;
17761;SDS011;9005;48.838;10.112;2023-05-02T04:40:03;5.65;;;4.13;;
17761;SDS011;9005;48.838;10.112;2023-05-02T04:42:32;3.78;;;3.38;;
17761;SDS011;9005;48.838;10.112;2023-05-02T04:44:58;3.45;;;3.08;;
17761;SDS011;9005;48.838;10.112;2023-05-02T04:47:25;3.78;;;3.10;;
17761;SDS011;9005;48.838;10.112;2023-05-02T04:49:53;3.78;;;2.90;;
17761;SDS011;9005;48.838;10.112;2023-05-02T04:52:20;7.00;;;4.35;;
17761;SDS011;9005;48.838;10.112;2023-05-02T04:54:47;3.25;;;2.88;;
17761;SDS011;9005;48.838;10.112;2023-05-02T04:57:13;3.10;;;2.80;;
17761;SDS011;9005;48.838;10.112;2023-05-02T04:59:40;3.10;;;2.80;;
17761;SDS011;9005;48.838;10.112;2023-05-02T05:02:07;3.65;;;3.35;;
17761;SDS011;9005;48.838;10.112;2023-05-02T05:04:36;3.22;;;2.92;;
17761;SDS011;9005;48.838;10.112;2023-05-02T05:07:04;9.07;;;4.93;;
17761;SDS011;9005;48.838;10.112;2023-05-02T05:09:31;10.43;;;4.80;;
17761;SDS011;9005;48.838;10.112;2023-05-02T05:11:58;9.35;;;4.93;;
17761;SDS011;9005;48.838;10.112;2023-05-02T05:14:26;7.57;;;5.00;;
17761;SDS011;9005;48.838;10.112;2023-05-02T05:16:52;4.65;;;3.63;;
17761;SDS011;9005;48.838;10.112;2023-05-02T05:19:19;5.95;;;3.22;;
17761;SDS011;9005;48.838;10.112;2023-05-02T05:21:46;3.80;;;3.38;;
17761;SDS011;9005;48.838;10.112;2023-05-02T05:24:14;4.78;;;3.40;;
17761;SDS011;9005;48.838;10.112;2023-05-02T05:26:40;3.10;;;2.80;;
17761;SDS011;9005;48.838;10.112;2023-05-02T05:29:07;10.23;;;4.72;;
17761;SDS011;9005;48.838;10.112;2023-05-02T05:31:34;3.35;;;3.05;;
17761;SDS011;9005;48.838;10.112;2023-05-02T05:34:01;4.03;;;3.00;;
17761;SDS011;9005;48.838;10.112;2023-05-02T05:36:28;4.15;;;3.17;;
17761;SDS011;9005;48.838;10.112;2023-05-02T05:38:55;3.97;;;3.15;;
17761;SDS011;9005;48.838;10.112;2023-05-02T05:41:23;3.80;;;3.47;;
17761;SDS011;9005;48.838;10.112;2023-05-02T05:43:50;3.15;;;2.95;;
17761;SDS011;9005;48.838;10.112;2023-05-02T05:46:16;3.30;;;3.00;;
17761;SDS011;9005;48.838;10.112;2023-05-02T05:48:43;5.72;;;3.88;;
17761;SDS011;9005;48.838;10.112;2023-05-02T05:51:10;3.50;;;3.20;;
17761;SDS011;9005;48.838;10.112;2023-05-02T05:53:36;4.10;;;3.70;;
17761;SDS011;9005;48.838;10.112;2023-05-02T05:56:09;6.75;;;3.88;;
17761;SDS011;9005;48.838;10.112;2023-05-02T05:58:38;5.10;;;4.53;;
17761;SDS011;9005;48.838;10.112;2023-05-02T06:01:05;4.32;;;3.70;;
17761;SDS011;9005;48.838;10.112;2023-05-02T06:03:33;4.30;;;3.40;;
17761;SDS011;9005;48.838;10.112;2023-05-02T06:05:59;4.13;;;3.30;;
17761;SDS011;9005;48.838;10.112;2023-05-02T06:08:26;4.18;;;3.30;;
17761;SDS011;9005;48.838;10.112;2023-05-02T06:10:53;4.15;;;3.40;;
17761;SDS011;9005;48.838;10.112;2023-05-02T06:13:19;4.20;;;3.78;;
17761;SDS011;9005;48.838;10.112;2023-05-02T06:15:47;5.03;;;3.20;;
17761;SDS011;9005;48.838;10.112;2023-05-02T06:18:14;3.85;;;3.05;;
17761;SDS011;9005;48.838;10.112;2023-05-02T06:20:41;3.60;;;3.30;;
17761;SDS011;9005;48.838;10.112;2023-05-02T06:23:07;4.90;;;3.63;;
17761;SDS011;9005;48.838;10.112;2023-05-02T06:25:36;4.32;;;3.00;;
17761;SDS011;9005;48.838;10.112;2023-05-02T06:28:03;3.55;;;3.25;;
17761;SDS011;9005;48.838;10.112;2023-05-02T06:30:30;3.60;;;3.30;;
17761;SDS011;9005;48.838;10.112;2023-05-02T06:32:58;5.85;;;3.15;;
17761;SDS011;9005;48.838;10.112;2023-05-02T06:35:25;3.08;;;2.85;;
17761;SDS011;9005;48.838;10.112;2023-05-02T06:37:52;6.10;;;3.30;;
17761;SDS011;9005;48.838;10.112;2023-05-02T06:40:19;4.20;;;2.80;;
17761;SDS011;9005;48.838;10.112;2023-05-02T06:42:46;5.00;;;3.10;;
17761;SDS011;9005;48.838;10.112;2023-05-02T06:45:13;4.13;;;2.88;;
17761;SDS011;9005;48.838;10.112;2023-05-02T06:47:40;3.53;;;3.22;;
17761;SDS011;9005;48.838;10.112;2023-05-02T06:50:09;5.68;;;3.40;;
17761;SDS011;9005;48.838;10.112;2023-05-02T06:52:36;3.33;;;2.90;;
17761;SDS011;9005;48.838;10.112;2023-05-02T06:55:04;3.42;;;3.13;;
17761;SDS011;9005;48.838;10.112;2023-05-02T06:57:31;3.83;;;2.97;;
17761;SDS011;9005;48.838;10.112;2023-05-02T06:59:58;2.95;;;2.75;;
17761;SDS011;9005;48.838;10.112;2023-05-02T07:02:25;3.45;;;3.15;;
17761;SDS011;9005;48.838;10.112;2023-05-02T07:04:52;3.85;;;2.90;;
17761;SDS011;9005;48.838;10.112;2023-05-02T07:07:21;3.22;;;2.92;;
17761;SDS011;9005;48.838;10.112;2023-05-02T07:09:48;4.22;;;2.72;;
17761;SDS011;9005;48.838;10.112;2023-05-02T07:12:14;3.70;;;3.40;;
17761;SDS011;9005;48.838;10.112;2023-05-02T07:14:41;2.97;;;2.70;;
17761;SDS011;9005;48.838;10.112;2023-05-02T07:17:10;3.60;;;3.25;;
17761;SDS011;9005;48.838;10.112;2023-05-02T07:19:37;2.95;;;2.65;;
17761;SDS011;9005;48.838;10.112;2023-05-02T07:22:04;3.15;;;2.90;;
17761;SDS011;9005;48.838;10.112;2023-05-02T07:24:32;3.13;;;2.80;;
17761;SDS011;9005;48.838;10.112;2023-05-02T07:26:59;3.40;;;3.10;;
17761;SDS011;9005;48.838;10.112;2023-05-02T07:29:27;3.40;;;3.05;;
17761;SDS011;9005;48.838;10.112;2023-05-02T07:31:54;3.58;;;3.13;;
17761;SDS011;9005;48.838;10.112;2023-05-02T07:34:20;3.22;;;3.03;;
17761;SDS011;9005;48.838;10.112;2023-05-02T07:36:47;3.00;;;2.80;;
17761;SDS011;9005;48.838;10.112;2023-05-02T07:39:14;3.47;;;3.17;;
17761;SDS011;9005;48.838;10.112;2023-05-02T07:41:42;4.13;;;3.72;;
17761;SDS011;9005;48.838;10.112;2023-05-02T07:44:09;3.60;;;3.30;;
17761;SDS011;9005;48.838;10.112;2023-05-02T07:46:36;3.85;;;3.40;;
17761;SDS011;9005;48.838;10.112;2023-05-02T07:49:03;6.82;;;3.30;;
17761;SDS011;9005;48.838;10.112;2023-05-02T07:51:29;3.25;;;3.03;;
17761;SDS011;9005;48.838;10.112;2023-05-02T07:53:57;3.50;;;3.20;;
17761;SDS011;9005;48.838;10.112;2023-05-02T07:56:23;4.00;;;3.35;;
17761;SDS011;9005;48.838;10.112;2023-05-02T07:58:51;4.50;;;3.20;;
17761;SDS011;9005;48.838;10.112;2023-05-02T08:01:18;3.70;;;3.40;;
17761;SDS011;9005;48.838;10.112;2023-05-02T08:03:45;4.07;;;3.67;;
17761;SDS011;9005;48.838;10.112;2023-05-02T08:06:13;3.83;;;3.42;;
17761;SDS011;9005;48.838;10.112;2023-05-02T08:08:40;4.15;;;3.75;;
17761;SDS011;9005;48.838;10.112;2023-05-02T08:11:07;4.32;;;3.65;;
17761;SDS011;9005;48.838;10.112;2023-05-02T08:13:33;5.00;;;3.47;;
17761;SDS011;9005;48.838;10.112;2023-05-02T08:16:01;3.50;;;3.20;;
17761;SDS011;9005;48.838;10.112;2023-05-02T08:18:28;4.00;;;3.60;;
17761;SDS011;9005;48.838;10.112;2023-05-02T08:20:55;4.05;;;3.75;;
17761;SDS011;9005;48.838;10.112;2023-05-02T08:23:22;3.92;;;3.53;;
17761;SDS011;9005;48.838;10.112;2023-05-02T08:25:49;4.18;;;3.78;;
17761;SDS011;9005;48.838;10.112;2023-05-02T08:28:15;4.20;;;3.70;;
17761;SDS011;9005;48.838;10.112;2023-05-02T08:30:43;4.47;;;4.07;;
17761;SDS011;9005;48.838;10.112;2023-05-02T08:33:11;4.65;;;4.22;;
17761;SDS011;9005;48.838;10.112;2023-05-02T08:35:38;6.10;;;3.45;;
17761;SDS011;9005;48.838;10.112;2023-05-02T08:38:05;4.57;;;4.20;;
17761;SDS011;9005;48.838;10.112;2023-05-02T08:40:32;5.25;;;4.05;;
17761;SDS011;9005;48.838;10.112;2023-05-02T08:43:01;4.40;;;4.00;;
17761;SDS011;9005;48.838;10.112;2023-05-02T08:45:29;4.57;;;3.88;;
17761;SDS011;9005;48.838;10.112;2023-05-02T08:48:01;4.93;;;3.55;;
17761;SDS011;9005;48.838;10.112;2023-05-02T08:50:33;4.85;;;4.45;;
17761;SDS011;9005;48.838;10.112;2023-05-02T08:53:02;5.03;;;3.53;;
17761;SDS011;9005;48.838;10.112;2023-05-02T08:55:30;4.85;;;4.00;;
17761;SDS011;9005;48.838;10.112;2023-05-02T08:57:57;4.05;;;3.60;;
17761;SDS011;9005;48.838;10.112;2023-05-02T09:00:25;3.95;;;3.63;;
17761;SDS011;9005;48.838;10.112;2023-05-02T09:02:55;5.03;;;3.70;;
17761;SDS011;9005;48.838;10.112;2023-05-02T09:05:34;5.97;;;4.45;;
17761;SDS011;9005;48.838;10.112;2023-05-02T09:08:06;4.72;;;4.32;;
17761;SDS011;9005;48.838;10.112;2023-05-02T09:10:33;4.72;;;3.67;;
17761;SDS011;9005;48.838;10.112;2023-05-02T09:15:56;3.90;;;3.60;;
17761;SDS011;9005;48.838;10.112;2023-05-02T09:18:26;3.85;;;3.50;;
17761;SDS011;9005;48.838;10.112;2023-05-02T09:20:55;4.65;;;3.35;;
17761;SDS011;9005;48.838;10.112;2023-05-02T09:23:30;3.60;;;3.30;;
17761;SDS011;9005;48.838;10.112;2023-05-02T09:25:58;4.22;;;3.42;;
17761;SDS011;9005;48.838;10.112;2023-05-02T09:28:38;3.83;;;3.53;;
17761;SDS011;9005;48.838;10.112;2023-05-02T09:31:06;4.68;;;4.18;;
17761;SDS011;9005;48.838;10.112;2023-05-02T09:33:34;3.88;;;3.58;;
17761;SDS011;9005;48.838;10.112;2023-05-02T09:36:03;4.05;;;3.67;;
17761;SDS011;9005;48.838;10.112;2023-05-02T09:38:32;3.75;;;3.40;;
17761;SDS011;9005;48.838;10.112;2023-05-02T09:40:59;5.32;;;3.92;;
17761;SDS011;9005;48.838;10.112;2023-05-02T09:43:27;4.40;;;4.00;;
17761;SDS011;9005;48.838;10.112;2023-05-02T09:45:58;4.53;;;4.07;;
17761;SDS011;9005;48.838;10.112;2023-05-02T09:48:26;4.03;;;3.70;;
17761;SDS011;9005;48.838;10.112;2023-05-02T09:50:53;6.50;;;4.32;;
17761;SDS011;9005;48.838;10.112;2023-05-02T09:53:23;3.75;;;3.35;;
17761;SDS011;9005;48.838;10.112;2023-05-02T09:55:58;5.07;;;3.60;;
17761;SDS011;9005;48.838;10.112;2023-05-02T09:58:25;3.90;;;3.50;;
17761;SDS011;9005;48.838;10.112;2023-05-02T10:00:54;3.90;;;3.50;;
17761;SDS011;9005;48.838;10.112;2023-05-02T10:03:22;3.70;;;3.40;;
17761;SDS011;9005;48.838;10.112;2023-05-02T10:05:50;4.63;;;3.58;;
17761;SDS011;9005;48.838;10.112;2023-05-02T10:08:18;3.97;;;3.20;;
17761;SDS011;9005;48.838;10.112;2023-05-02T10:10:49;3.38;;;3.08;;
17761;SDS011;9005;48.838;10.112;2023-05-02T10:13:18;4.45;;;3.72;;
17761;SDS011;9005;48.838;10.112;2023-05-02T10:15:46;4.00;;;3.58;;
17761;SDS011;9005;48.838;10.112;2023-05-02T10:18:16;4.25;;;3.25;;
17761;SDS011;9005;48.838;10.112;2023-05-02T10:20:47;4.07;;;3.63;;
17761;SDS011;9005;48.838;10.112;2023-05-02T10:23:21;5.10;;;3.72;;
17761;SDS011;9005;48.838;10.112;2023-05-02T10:25:52;4.13;;;3.70;;
17761;SDS011;9005;48.838;10.112;2023-05-02T10:28:19;3.67;;;2.90;;
17761;SDS011;9005;48.838;10.112;2023-05-02T10:30:46;3.80;;;2.78;;
17761;SDS011;9005;48.838;10.112;2023-05-02T10:33:15;3.95;;;3.63;;
17761;SDS011;9005;48.838;10.112;2023-05-02T10:35:43;6.95;;;3.30;;
17761;SDS011;9005;48.838;10.112;2023-05-02T10:38:11;4.22;;;3.83;;
17761;SDS011;9005;48.838;10.112;2023-05-02T10:40:39;3.17;;;2.90;;
17761;SDS011;9005;48.838;10.112;2023-05-02T10:43:08;5.20;;;3.30;;
17761;SDS011;9005;48.838;10.112;2023-05-02T10:45:40;3.95;;;3.58;;
17761;SDS011;9005;48.838;10.112;2023-05-02T10:48:14;3.30;;;3.10;;
17761;SDS011;9005;48.838;10.112;2023-05-02T10:50:41;5.07;;;3.80;;
17761;SDS011;9005;48.838;10.112;2023-05-02T10:53:21;4.60;;;2.83;;
17761;SDS011;9005;48.838;10.112;2023-05-02T10:56:13;4.05;;;3.42;;
17761;SDS011;9005;48.838;10.112;2023-05-02T10:58:43;3.83;;;3.53;;
17761;SDS011;9005;48.838;10.112;2023-05-02T11:04:02;2.80;;;2.58;;
17761;SDS011;9005;48.838;10.112;2023-05-02T11:06:30;5.63;;;3.50;;
17761;SDS011;9005;48.838;10.112;2023-05-02T11:11:57;4.50;;;2.47;;
17761;SDS011;9005;48.838;10.112;2023-05-02T11:14:46;3.45;;;3.15;;
17761;SDS011;9005;48.838;10.112;2023-05-02T11:17:13;4.30;;;3.20;;
17761;SDS011;9005;48.838;10.112;2023-05-02T11:22:57;5.45;;;3.00;;
17761;SDS011;9005;48.838;10.112;2023-05-02T11:25:28;5.78;;;2.53;;
17761;SDS011;9005;48.838;10.112;2023-05-02T11:27:55;4.20;;;2.67;;
17761;SDS011;9005;48.838;10.112;2023-05-02T11:30:36;5.18;;;3.33;;
17761;SDS011;9005;48.838;10.112;2023-05-02T11:33:11;4.75;;;3.10;;
17761;SDS011;9005;48.838;10.112;2023-05-02T11:35:45;3.22;;;2.65;;
17761;SDS011;9005;48.838;10.112;2023-05-02T11:38:14;7.10;;;3.45;;
17761;SDS011;9005;48.838;10.112;2023-05-02T11:40:51;4.03;;;2.33;;
17761;SDS011;9005;48.838;10.112;2023-05-02T11:43:20;2.90;;;2.58;;
17761;SDS011;9005;48.838;10.112;2023-05-02T11:45:50;3.38;;;2.72;;
17761;SDS011;9005;48.838;10.112;2023-05-02T11:48:18;3.38;;;2.45;;
17761;SDS011;9005;48.838;10.112;2023-05-02T11:50:47;2.88;;;2.53;;
17761;SDS011;9005;48.838;10.112;2023-05-02T11:53:16;3.45;;;2.83;;
17761;SDS011;9005;48.838;10.112;2023-05-02T11:55:46;3.58;;;2.55;;
17761;SDS011;9005;48.838;10.112;2023-05-02T11:58:14;3.00;;;2.70;;
17761;SDS011;9005;48.838;10.112;2023-05-02T12:00:42;5.38;;;3.15;;
17761;SDS011;9005;48.838;10.112;2023-05-02T12:03:23;2.50;;;2.30;;
17761;SDS011;9005;48.838;10.112;2023-05-02T12:05:54;2.67;;;2.47;;
17761;SDS011;9005;48.838;10.112;2023-05-02T12:08:22;4.60;;;2.08;;
17761;SDS011;9005;48.838;10.112;2023-05-02T12:10:51;5.20;;;2.60;;
17761;SDS011;9005;48.838;10.112;2023-05-02T12:13:20;2.45;;;2.25;;
17761;SDS011;9005;48.838;10.112;2023-05-02T12:15:48;3.55;;;2.40;;
17761;SDS011;9005;48.838;10.112;2023-05-02T12:18:16;4.00;;;2.22;;
17761;SDS011;9005;48.838;10.112;2023-05-02T12:20:44;3.60;;;2.67;;
17761;SDS011;9005;48.838;10.112;2023-05-02T12:23:11;2.50;;;2.28;;
17761;SDS011;9005;48.838;10.112;2023-05-02T12:25:39;2.78;;;2.55;;
17761;SDS011;9005;48.838;10.112;2023-05-02T12:28:06;2.95;;;2.72;;
17761;SDS011;9005;48.838;10.112;2023-05-02T12:30:35;3.92;;;2.70;;
17761;SDS011;9005;48.838;10.112;2023-05-02T12:33:04;4.00;;;2.72;;
17761;SDS011;9005;48.838;10.112;2023-05-02T12:35:31;3.65;;;2.97;;
17761;SDS011;9005;48.838;10.112;2023-05-02T12:38:10;3.35;;;3.05;;
17761;SDS011;9005;48.838;10.112;2023-05-02T12:40:44;3.60;;;3.30;;
17761;SDS011;9005;48.838;10.112;2023-05-02T12:43:12;3.17;;;2.85;;
17761;SDS011;9005;48.838;10.112;2023-05-02T12:45:39;3.72;;;3.33;;
17761;SDS011;9005;48.838;10.112;2023-05-02T12:48:17;3.17;;;2.92;;
17761;SDS011;9005;48.838;10.112;2023-05-02T12:50:45;2.47;;;2.28;;
17761;SDS011;9005;48.838;10.112;2023-05-02T12:53:13;4.70;;;3.30;;
17761;SDS011;9005;48.838;10.112;2023-05-02T12:55:40;3.28;;;2.97;;
17761;SDS011;9005;48.838;10.112;2023-05-02T12:58:07;5.00;;;3.00;;
17761;SDS011;9005;48.838;10.112;2023-05-02T13:00:35;4.75;;;3.03;;
17761;SDS011;9005;48.838;10.112;2023-05-02T13:03:03;3.60;;;3.30;;
17761;SDS011;9005;48.838;10.112;2023-05-02T13:05:30;3.00;;;2.67;;
17761;SDS011;9005;48.838;10.112;2023-05-02T13:07:57;2.92;;;2.60;;
17761;SDS011;9005;48.838;10.112;2023-05-02T13:10:25;3.33;;;2.40;;
17761;SDS011;9005;48.838;10.112;2023-05-02T13:12:52;2.90;;;2.70;;
17761;SDS011;9005;48.838;10.112;2023-05-02T13:15:19;3.03;;;2.80;;
17761;SDS011;9005;48.838;10.112;2023-05-02T13:17:46;2.80;;;2.60;;
17761;SDS011;9005;48.838;10.112;2023-05-02T13:20:15;3.40;;;3.10;;
17761;SDS011;9005;48.838;10.112;2023-05-02T13:22:42;3.08;;;2.78;;
17761;SDS011;9005;48.838;10.112;2023-05-02T13:25:09;3.28;;;3.08;;
17761;SDS011;9005;48.838;10.112;2023-05-02T13:27:37;4.38;;;3.22;;
17761;SDS011;9005;48.838;10.112;2023-05-02T13:30:05;3.50;;;2.45;;
17761;SDS011;9005;48.838;10.112;2023-05-02T13:32:33;3.05;;;2.60;;
17761;SDS011;9005;48.838;10.112;2023-05-02T13:35:00;5.07;;;2.88;;
17761;SDS011;9005;48.838;10.112;2023-05-02T13:37:27;3.10;;;2.80;;
17761;SDS011;9005;48.838;10.112;2023-05-02T13:39:54;7.63;;;3.28;;
17761;SDS011;9005;48.838;10.112;2023-05-02T13:42:21;8.27;;;3.67;;
17761;SDS011;9005;48.838;10.112;2023-05-02T13:44:49;6.80;;;4.07;;
17761;SDS011;9005;48.838;10.112;2023-05-02T13:47:15;0.32;;;0.32;;
17761;SDS011;9005;48.838;10.112;2023-05-02T13:49:42;0.30;;;0.30;;
17761;SDS011;9005;48.838;10.112;2023-05-02T13:52:09;0.10;;;0.10;;
17761;SDS011;9005;48.838;10.112;2023-05-02T13:54:36;0.10;;;0.10;;
17761;SDS011;9005;48.838;10.112;2023-05-02T13:57:02;1.88;;;1.48;;
17761;SDS011;9005;48.838;10.112;2023-05-02T13:59:29;0.85;;;0.55;;
17761;SDS011;9005;48.838;10.112;2023-05-02T14:01:58;0.40;;;0.40;;
17761;SDS011;9005;48.838;10.112;2023-05-02T14:04:25;1.00;;;0.60;;
17761;SDS011;9005;48.838;10.112;2023-05-02T14:06:52;0.80;;;0.75;;
17761;SDS011;9005;48.838;10.112;2023-05-02T14:09:18;0.10;;;0.10;;
17761;SDS011;9005;48.838;10.112;2023-05-02T14:11:45;5.75;;;2.05;;
17761;SDS011;9005;48.838;10.112;2023-05-02T14:14:12;0.20;;;0.20;;
17761;SDS011;9005;48.838;10.112;2023-05-02T14:16:39;0.13;;;0.13;;
17761;SDS011;9005;48.838;10.112;2023-05-02T14:19:07;0.45;;;0.45;;
17761;SDS011;9005;48.838;10.112;2023-05-02T14:21:34;0.30;;;0.30;;
17761;SDS011;9005;48.838;10.112;2023-05-02T14:24:02;0.63;;;0.63;;
17761;SDS011;9005;48.838;10.112;2023-05-02T14:26:30;0.20;;;0.20;;
17761;SDS011;9005;48.838;10.112;2023-05-02T14:28:57;0.20;;;0.20;;
17761;SDS011;9005;48.838;10.112;2023-05-02T14:31:24;0.10;;;0.10;;
17761;SDS011;9005;48.838;10.112;2023-05-02T14:33:51;0.40;;;0.30;;
17761;SDS011;9005;48.838;10.112;2023-05-02T14:36:19;0.20;;;0.20;;
17761;SDS011;9005;48.838;10.112;2023-05-02T14:38:46;0.30;;;0.30;;
17761;SDS011;9005;48.838;10.112;2023-05-02T14:41:13;1.10;;;0.55;;
17761;SDS011;9005;48.838;10.112;2023-05-02T14:43:39;0.28;;;0.28;;
17761;SDS011;9005;48.838;10.112;2023-05-02T14:46:06;0.10;;;0.10;;
17761;SDS011;9005;48.838;10.112;2023-05-02T14:48:33;0.35;;;0.35;;
17761;SDS011;9005;48.838;10.112;2023-05-02T14:51:01;0.38;;;0.38;;
17761;SDS011;9005;48.838;10.112;2023-05-02T14:53:30;0.28;;;0.28;;
17761;SDS011;9005;48.838;10.112;2023-05-02T14:55:56;0.47;;;0.47;;
17761;SDS011;9005;48.838;10.112;2023-05-02T14:58:23;0.55;;;0.55;;
17761;SDS011;9005;48.838;10.112;2023-05-02T15:00:50;0.35;;;0.35;;
17761;SDS011;9005;48.838;10.112;2023-05-02T15:03:17;0.30;;;0.30;;
17761;SDS011;9005;48.838;10.112;2023-05-02T15:05:43;0.50;;;0.50;;
17761;SDS011;9005;48.838;10.112;2023-05-02T15:08:10;0.30;;;0.30;;